ADDS METAR Data INFO
IDs: Format: Raw Decoded Include TAF

Data at: 1840 UTC 17 Oct 2017

KMBS 171753Z 25017G25KT 10SM CLR 19/08 A3007 RMK AO2 PK WND 25028/1712 SLP184 T01940078 10194 20078 58014
KMBS 171653Z 24018G32KT 10SM CLR 18/07 A3009 RMK AO2 PK WND 22032/1644 SLP191 T01830067
KMBS 171553Z 23018G23KT 10SM CLR 16/06 A3011 RMK AO2 PK WND 21027/1517 SLP197 T01610061
KMBS 171453Z 23018G23KT 10SM CLR 15/06 A3011 RMK AO2 PK WND 22026/1412 SLP199 T01500056 57008
KMBS 171353Z 22016KT 10SM CLR 12/06 A3012 RMK AO2 SLP203 T01220056
KMBS 171253Z 20011KT 10SM CLR 09/05 A3013 RMK AO2 SLP205 T00890050
KMBS 171153Z 20009KT 10SM CLR 08/04 A3014 RMK AO2 SLP208 T00780044 10078 20061 56009
KMBS 171053Z 21008KT 10SM CLR 07/04 A3015 RMK AO2 SLP211 T00720044
KMBS 170953Z 21007KT 10SM CLR 07/04 A3016 RMK AO2 SLP215 T00670044
KMBS 170853Z AUTO 19009KT 10SM CLR 07/04 A3017 RMK AO2 SLP217 T00670039 58009
KMBS 170753Z AUTO 20007KT 10SM CLR 07/04 A3018 RMK AO2 SLP223 T00670044
KMBS 170653Z AUTO 20008KT 10SM CLR 07/04 A3018 RMK AO2 SLP225 T00720044
KMBS 170553Z AUTO 18006KT 10SM CLR 07/04 A3019 RMK AO2 SLP227 T00670044 10100 20067 56006
KMBS 170453Z AUTO 19007KT 10SM CLR 07/05 A3020 RMK AO2 SLP228 T00670050 401390044
KMBS 170353Z AUTO 19006KT 10SM CLR 07/05 A3020 RMK AO2 SLP231 T00670050
KMBS 170253Z AUTO 20005KT 10SM CLR 08/05 A3021 RMK AO2 SLP234 T00830050 56006
KMBS 170153Z 20005KT 10SM CLR 09/05 A3021 RMK AO2 SLP234 T00890050
KMBS 170053Z 20004KT 10SM CLR 10/05 A3022 RMK AO2 SLP238 T01000050
KMBS 162353Z 20005KT 10SM CLR 10/05 A3023 RMK AO2 SLP241 T01000050 10139 20100 55001
KMBS 162253Z 20005KT 10SM SCT048 12/05 A3022 RMK AO2 SLP238 T01170050
KMBS 162153Z 23008KT 10SM FEW050 SCT075 13/04 A3023 RMK AO2 SLP239 T01330039
KMBS 162053Z 22010KT 10SM FEW050 SCT075 14/03 A3023 RMK AO2 SLP241 T01390033 56015
KMBS 161953Z COR 24010KT 10SM BKN080 13/03 A3024 RMK AO2 SLP243 T01280033
KMBS 161853Z 20006KT 10SM FEW047 OVC065 12/03 A3025 RMK AO2 SLP246 T01220028
KMBS 161753Z 24009KT 9SM SCT043 12/03 A3028 RMK AO2 SLP256 T01220028 10122 20050 58011
KMBS 161653Z 20005KT 10SM CLR 11/02 A3029 RMK AO2 SLP261 T01110022
KMBS 161553Z VRB04KT 10SM BKN085 10/02 A3030 RMK AO2 SLP264 T01000022
KMBS 161453Z VRB03KT 10SM OVC100 09/01 A3031 RMK AO2 SLP267 T00890011 51009 $
KMBS 161353Z 24004KT 10SM FEW100 07/02 A3030 RMK AO2 SLP265 T00720022 $
KMBS 161253Z 27003KT 10SM BKN100 06/04 A3029 RMK AO2 SLP262 T00560039 $
KMBS 161153Z 29006KT 10SM OVC090 05/03 A3028 RMK AO2 SLP258 70022 T00500028 10061 20044 53017 $
KMBS 161053Z 33003KT 10SM OVC080 06/03 A3026 RMK AO2 SLP250 T00560028 $
KMBS 160953Z 34004KT 10SM BKN070 OVC085 06/03 A3025 RMK AO2 SLP245 T00610028 $
KMBS 160853Z AUTO 28004KT 10SM OVC085 05/04 A3023 RMK AO2 SLP240 T00500039 51014 $
KMBS 160753Z AUTO 32004KT 10SM OVC110 05/03 A3022 RMK AO2 SLP236 T00500033 $
KMBS 160653Z AUTO 30003KT 10SM OVC110 05/04 A3021 RMK AO2 SLP233 T00500039 $